Time;durP1;ratioP1;P1;durP2;ratioP2;P2;SDS_P1;SDS_P2;PMS_P1;PMS_P2;Temp;Humidity;BMP_temperature;BMP_pressure;BME280_temperature;BME280_humidity;BME280_pressure;Samples;Min_cycle;Max_cycle;Signal;HPM_P1;HPM_P2
2022/05/30 00:01:22;;;;;;;10.07;5.53;;;20.70;92.50;;;;;;4981283;28;20201;-73
2022/05/30 00:03:51;;;;;;;10.23;6.13;;;20.70;92.50;;;;;;4982886;28;20199;-73
2022/05/30 00:06:22;;;;;;;8.70;5.77;;;20.60;92.50;;;;;;4982479;28;20201;-74
2022/05/30 00:08:50;;;;;;;13.68;6.53;;;20.60;92.90;;;;;;4983317;28;20662;-74
2022/05/30 00:11:19;;;;;;;11.25;6.40;;;20.60;92.80;;;;;;4984260;28;20235;-73
2022/05/30 00:13:49;;;;;;;9.18;5.55;;;20.60;92.90;;;;;;4981032;28;20227;-73
2022/05/30 00:16:21;;;;;;;10.23;5.90;;;20.60;92.90;;;;;;4980607;28;20244;-72
2022/05/30 00:18:51;;;;;;;9.30;5.57;;;20.50;92.90;;;;;;4979208;28;20220;-73
2022/05/30 00:21:21;;;;;;;13.07;6.17;;;20.50;92.90;;;;;;4978550;28;20322;-75
2022/05/30 00:23:53;;;;;;;9.10;5.20;;;20.50;92.90;;;;;;4982046;28;20204;-73
2022/05/30 00:26:22;;;;;;;9.17;6.03;;;20.50;92.80;;;;;;4977067;28;20245;-71
2022/05/30 00:28:53;;;;;;;12.82;6.50;;;20.50;93.00;;;;;;4981797;28;20205;-74
2022/05/30 00:31:21;;;;;;;13.45;7.38;;;20.50;93.20;;;;;;4977375;28;20197;-73
2022/05/30 00:33:51;;;;;;;9.97;6.00;;;20.40;93.10;;;;;;4984728;28;20782;-74
2022/05/30 00:36:19;;;;;;;10.67;6.87;;;20.50;93.20;;;;;;4982563;28;20209;-73
2022/05/30 00:38:48;;;;;;;15.67;7.50;;;20.50;93.20;;;;;;4981980;28;20221;-75
2022/05/30 00:41:17;;;;;;;10.80;6.97;;;20.40;93.20;;;;;;4980317;28;20205;-74
2022/05/30 00:43:46;;;;;;;14.57;7.40;;;20.40;93.10;;;;;;4977872;28;20227;-73
2022/05/30 00:46:17;;;;;;;11.30;6.70;;;20.40;93.10;;;;;;4981339;28;21085;-73
2022/05/30 00:48:50;;;;;;;11.60;7.37;;;20.40;93.10;;;;;;4983792;28;20229;-74
2022/05/30 00:51:22;;;;;;;14.47;7.83;;;20.40;93.20;;;;;;4978691;28;20204;-73
2022/05/30 00:53:54;;;;;;;12.90;6.80;;;20.40;93.30;;;;;;4977072;28;20193;-72
2022/05/30 00:56:24;;;;;;;12.70;7.37;;;20.40;93.30;;;;;;4981724;28;20205;-73
2022/05/30 00:58:53;;;;;;;12.90;6.47;;;20.40;93.20;;;;;;4975584;28;20221;-73
2022/05/30 01:01:23;;;;;;;11.33;6.77;;;20.40;93.30;;;;;;4978723;28;20659;-73
2022/05/30 01:06:44;;;;;;;12.83;7.13;;;20.40;93.30;;;;;;4975787;28;20197;-74
2022/05/30 01:09:14;;;;;;;12.23;7.47;;;20.40;93.30;;;;;;4979473;28;20196;-73
2022/05/30 01:11:52;;;;;;;10.83;7.20;;;20.50;93.30;;;;;;4983434;28;20193;-72
2022/05/30 01:14:22;;;;;;;11.70;7.03;;;20.50;93.20;;;;;;4987586;28;20192;-73
2022/05/30 01:16:51;;;;;;;11.33;6.60;;;20.50;93.10;;;;;;4980717;28;20209;-74
2022/05/30 01:19:56;;;;;;;12.90;7.37;;;20.50;93.10;;;;;;4982456;28;20200;-74
2022/05/30 01:22:39;;;;;;;10.27;6.80;;;20.50;93.20;;;;;;4984884;28;20188;-74
2022/05/30 01:25:20;;;;;;;10.33;6.40;;;20.50;93.10;;;;;;4985752;28;20207;-73
2022/05/30 01:27:54;;;;;;;12.03;7.30;;;20.50;93.10;;;;;;4979059;28;20678;-73
2022/05/30 01:30:24;;;;;;;11.23;6.70;;;20.50;92.90;;;;;;4980682;28;20863;-73
2022/05/30 01:32:57;;;;;;;11.73;6.77;;;20.60;93.00;;;;;;4979493;28;20200;-73
2022/05/30 01:35:27;;;;;;;10.20;6.57;;;20.60;92.90;;;;;;4981806;28;20197;-73
2022/05/30 01:37:57;;;;;;;11.13;6.17;;;20.60;92.90;;;;;;4987536;28;20201;-74
2022/05/30 01:40:26;;;;;;;12.40;6.97;;;20.60;92.90;;;;;;4983679;28;20204;-74
2022/05/30 01:42:55;;;;;;;8.87;6.13;;;20.50;93.00;;;;;;4983653;28;20193;-73
2022/05/30 01:45:25;;;;;;;12.00;7.30;;;20.60;93.00;;;;;;4981669;28;20215;-73
2022/05/30 01:47:53;;;;;;;9.73;6.50;;;20.60;93.00;;;;;;4978575;28;20239;-73
2022/05/30 01:50:23;;;;;;;11.97;6.70;;;20.50;93.00;;;;;;4982806;28;20220;-74
2022/05/30 01:52:52;;;;;;;12.97;7.17;;;20.50;92.90;;;;;;4981630;28;20897;-74
2022/05/30 01:55:20;;;;;;;12.70;7.23;;;20.60;92.90;;;;;;4982934;28;20659;-73
2022/05/30 01:57:48;;;;;;;9.37;6.43;;;20.60;92.90;;;;;;4979012;28;20213;-73
2022/05/30 02:00:23;;;;;;;10.80;6.87;;;20.60;92.80;;;;;;4981541;28;20197;-73
2022/05/30 02:02:52;;;;;;;13.63;7.13;;;20.60;93.30;;;;;;4980536;28;20204;-73
2022/05/30 02:05:20;;;;;;;8.77;6.27;;;20.60;92.80;;;;;;4980802;28;20197;-73
2022/05/30 02:07:49;;;;;;;12.63;6.90;;;20.60;92.90;;;;;;4982178;28;20899;-74
2022/05/30 02:10:17;;;;;;;12.03;6.50;;;20.50;92.90;;;;;;4982718;28;20205;-73
2022/05/30 02:12:45;;;;;;;10.13;6.33;;;20.50;93.00;;;;;;4982262;28;20553;-74
2022/05/30 02:15:14;;;;;;;11.30;6.33;;;20.50;93.00;;;;;;4981493;28;20232;-73
2022/05/30 02:17:42;;;;;;;11.60;6.97;;;20.50;93.00;;;;;;4981601;28;20213;-73
2022/05/30 02:20:12;;;;;;;10.03;6.77;;;20.50;93.00;;;;;;4979191;28;20201;-73
2022/05/30 02:22:40;;;;;;;12.43;7.00;;;20.50;92.90;;;;;;4980984;28;20209;-73
2022/05/30 02:25:10;;;;;;;11.27;6.40;;;20.50;92.90;;;;;;4978327;28;20201;-74
2022/05/30 02:27:38;;;;;;;10.97;6.60;;;20.50;92.90;;;;;;4981235;28;20201;-74
2022/05/30 02:30:07;;;;;;;10.13;6.33;;;20.60;92.90;;;;;;4979412;28;20206;-75
2022/05/30 02:32:36;;;;;;;12.27;6.57;;;20.50;93.00;;;;;;4981962;28;20296;-73
2022/05/30 02:38:07;;;;;;;13.87;7.13;;;20.50;92.90;;;;;;4901000;29;20226;-73
2022/05/30 02:40:35;;;;;;;10.77;6.77;;;20.50;92.90;;;;;;4900581;29;20674;-73
2022/05/30 02:43:03;;;;;;;13.27;6.93;;;20.50;92.90;;;;;;4931207;28;20204;-73
2022/05/30 02:45:32;;;;;;;14.13;7.17;;;20.50;93.00;;;;;;4975896;28;20232;-73
2022/05/30 02:48:00;;;;;;;14.70;6.97;;;20.50;92.90;;;;;;4983019;28;20229;-73
2022/05/30 02:50:30;;;;;;;15.13;7.33;;;20.50;92.90;;;;;;4982187;28;20255;-74
2022/05/30 02:52:58;;;;;;;10.80;6.57;;;20.50;92.90;;;;;;4980323;28;20204;-74
2022/05/30 02:55:27;;;;;;;11.97;7.23;;;20.50;92.90;;;;;;4980539;28;20197;-74
2022/05/30 02:57:55;;;;;;;10.00;6.70;;;20.50;93.00;;;;;;4981896;28;20193;-73
2022/05/30 03:00:26;;;;;;;9.77;6.77;;;20.50;93.00;;;;;;4984794;28;20212;-75
2022/05/30 03:02:54;;;;;;;12.80;6.87;;;20.50;93.00;;;;;;4975247;28;20201;-73
2022/05/30 03:05:23;;;;;;;12.47;7.50;;;20.50;93.00;;;;;;4977135;28;20197;-74
2022/05/30 03:07:52;;;;;;;12.03;6.90;;;20.50;93.10;;;;;;4975092;28;20197;-74
2022/05/30 03:10:21;;;;;;;10.83;6.87;;;20.50;93.10;;;;;;4980275;28;20208;-72
2022/05/30 03:12:49;;;;;;;14.63;7.13;;;20.50;93.00;;;;;;4987698;28;20209;-73
2022/05/30 03:15:17;;;;;;;15.03;7.53;;;20.50;93.00;;;;;;4987833;28;20228;-73
2022/05/30 03:17:46;;;;;;;13.80;7.00;;;20.50;92.90;;;;;;4988416;28;20204;-74
2022/05/30 03:20:14;;;;;;;11.33;6.73;;;20.50;93.00;;;;;;4984678;28;20792;-73
2022/05/30 03:22:43;;;;;;;11.80;6.70;;;20.50;93.00;;;;;;4983545;28;20204;-73
2022/05/30 03:25:13;;;;;;;10.43;6.33;;;20.60;92.90;;;;;;4984757;28;20231;-73
2022/05/30 03:27:41;;;;;;;11.03;6.87;;;20.60;92.90;;;;;;4980095;28;20201;-74
2022/05/30 03:30:11;;;;;;;13.30;7.07;;;20.60;92.90;;;;;;4979140;28;20208;-74
2022/05/30 03:32:41;;;;;;;17.70;7.87;;;20.60;92.90;;;;;;4979096;28;20205;-73
2022/05/30 03:35:10;;;;;;;12.73;6.90;;;20.60;92.80;;;;;;4983066;28;20677;-74
2022/05/30 03:37:40;;;;;;;13.27;7.43;;;20.70;92.80;;;;;;4983370;28;20200;-75
2022/05/30 03:40:12;;;;;;;12.13;7.43;;;20.70;92.80;;;;;;4986817;28;20217;-74
2022/05/30 03:42:42;;;;;;;13.03;7.40;;;20.70;92.80;;;;;;4985099;28;20208;-74
2022/05/30 03:45:13;;;;;;;13.93;6.83;;;20.70;92.80;;;;;;4985453;28;20197;-74
2022/05/30 03:47:43;;;;;;;13.63;7.40;;;20.70;92.70;;;;;;4987332;28;20225;-74
2022/05/30 03:50:15;;;;;;;9.93;6.87;;;20.70;92.70;;;;;;4982836;28;20197;-73
2022/05/30 03:52:44;;;;;;;12.27;7.23;;;20.70;92.60;;;;;;4988598;28;20204;-74
2022/05/30 03:55:17;;;;;;;14.13;6.43;;;20.70;92.60;;;;;;4983015;28;20205;-73
2022/05/30 03:57:47;;;;;;;12.17;6.43;;;20.70;92.60;;;;;;4977956;28;20539;-74
2022/05/30 04:00:19;;;;;;;14.20;6.90;;;20.80;92.60;;;;;;4987307;28;20221;-73
2022/05/30 04:02:48;;;;;;;11.77;7.20;;;20.80;92.60;;;;;;4982510;28;20197;-74
2022/05/30 04:05:17;;;;;;;11.00;7.13;;;20.80;92.50;;;;;;4982946;28;20340;-73
2022/05/30 04:07:46;;;;;;;15.10;6.73;;;20.80;92.50;;;;;;4980607;28;20221;-74
2022/05/30 04:10:15;;;;;;;10.60;6.63;;;20.80;92.50;;;;;;4981055;28;20193;-74
2022/05/30 04:12:43;;;;;;;12.93;6.97;;;20.80;92.50;;;;;;4982059;28;20201;-74
2022/05/30 04:15:20;;;;;;;12.17;8.03;;;20.80;92.40;;;;;;4982903;28;20212;-74
2022/05/30 04:17:50;;;;;;;12.43;7.13;;;20.80;92.40;;;;;;4983973;28;20197;-73
2022/05/30 04:20:18;;;;;;;19.20;7.40;;;20.80;92.40;;;;;;4980751;28;20217;-74
2022/05/30 04:22:47;;;;;;;10.33;7.03;;;20.80;92.40;;;;;;4975970;28;20237;-74
2022/05/30 04:25:15;;;;;;;13.40;7.40;;;20.80;92.40;;;;;;4985393;28;20220;-73
2022/05/30 04:27:43;;;;;;;15.10;7.83;;;20.90;92.40;;;;;;4984757;28;20197;-74
2022/05/30 04:30:13;;;;;;;12.93;7.17;;;20.90;92.40;;;;;;4983942;28;20212;-73
2022/05/30 04:32:42;;;;;;;11.52;7.53;;;20.90;92.40;;;;;;4987403;28;20201;-73
2022/05/30 04:35:11;;;;;;;12.60;7.77;;;20.90;92.30;;;;;;4986367;28;20199;-73
2022/05/30 04:37:40;;;;;;;11.33;7.17;;;20.90;92.30;;;;;;4988355;28;20197;-73
2022/05/30 04:40:12;;;;;;;12.75;6.95;;;21.00;92.30;;;;;;4987151;28;20250;-74
2022/05/30 04:42:41;;;;;;;16.20;7.70;;;21.00;92.20;;;;;;4993201;28;20197;-74
2022/05/30 04:45:10;;;;;;;13.73;6.70;;;21.00;92.20;;;;;;4982689;28;20663;-73
2022/05/30 04:47:40;;;;;;;11.90;6.90;;;21.00;92.20;;;;;;4984241;28;20232;-74
2022/05/30 04:50:14;;;;;;;11.15;6.70;;;21.00;92.20;;;;;;4984052;28;20209;-73
2022/05/30 04:52:43;;;;;;;12.67;7.40;;;21.10;92.20;;;;;;4978899;28;20289;-74
2022/05/30 04:55:14;;;;;;;13.95;7.28;;;21.10;92.10;;;;;;4984528;28;20204;-74
2022/05/30 04:57:43;;;;;;;14.37;8.07;;;21.10;92.10;;;;;;4985394;28;20209;-74
2022/05/30 05:00:15;;;;;;;10.73;6.53;;;21.10;92.10;;;;;;4983940;28;20813;-75
2022/05/30 05:02:44;;;;;;;12.80;7.03;;;21.10;92.10;;;;;;4985434;28;20201;-75
2022/05/30 05:05:13;;;;;;;10.02;6.28;;;21.10;92.00;;;;;;4986600;28;20490;-74
2022/05/30 05:07:46;;;;;;;10.50;6.90;;;21.20;92.00;;;;;;4980792;28;20201;-74
2022/05/30 05:10:34;;;;;;;13.25;6.72;;;21.20;92.00;;;;;;4985156;28;20193;-75
2022/05/30 05:13:02;;;;;;;11.05;6.90;;;21.20;92.00;;;;;;4982335;28;20207;-74
2022/05/30 05:15:31;;;;;;;12.57;6.77;;;21.20;92.00;;;;;;4982948;28;20201;-75
2022/05/30 05:18:00;;;;;;;14.38;7.70;;;21.20;91.90;;;;;;4984580;28;20197;-74
2022/05/30 05:20:29;;;;;;;14.45;7.30;;;21.20;91.90;;;;;;4978459;28;20221;-74
2022/05/30 05:22:57;;;;;;;10.93;7.45;;;21.30;91.90;;;;;;4983488;28;20205;-73
2022/05/30 05:25:25;;;;;;;15.43;8.25;;;21.30;91.80;;;;;;4981822;28;20212;-75
2022/05/30 05:27:54;;;;;;;15.10;7.95;;;21.30;91.80;;;;;;4972516;28;20221;-73
2022/05/30 05:30:22;;;;;;;14.50;7.93;;;21.30;91.80;;;;;;4983534;28;20196;-74
2022/05/30 05:32:51;;;;;;;13.52;7.45;;;21.30;91.80;;;;;;4977131;28;20855;-75
2022/05/30 05:35:21;;;;;;;12.10;7.32;;;21.40;91.90;;;;;;4975789;28;20209;-74
2022/05/30 05:37:51;;;;;;;10.88;6.93;;;21.40;91.90;;;;;;4980508;28;20201;-74
2022/05/30 05:40:20;;;;;;;12.15;7.25;;;21.40;91.80;;;;;;4975541;28;21023;-74
2022/05/30 05:42:48;;;;;;;12.35;7.60;;;21.40;91.80;;;;;;4971812;28;20202;-74
2022/05/30 05:45:17;;;;;;;13.43;7.45;;;21.40;91.80;;;;;;4974770;28;20211;-73
2022/05/30 05:47:45;;;;;;;14.00;7.22;;;21.40;91.80;;;;;;4985350;28;20229;-73
2022/05/30 05:50:14;;;;;;;11.35;6.88;;;21.50;91.80;;;;;;4984538;28;20194;-72
2022/05/30 05:52:43;;;;;;;11.43;7.30;;;21.50;91.80;;;;;;4991985;28;20203;-73
2022/05/30 05:55:11;;;;;;;14.10;7.70;;;21.50;91.80;;;;;;4983528;28;20201;-77
2022/05/30 05:57:40;;;;;;;13.40;7.47;;;21.60;91.80;;;;;;4984177;28;20201;-76
2022/05/30 06:00:09;;;;;;;11.27;7.63;;;21.50;91.70;;;;;;4984496;28;20213;-76
2022/05/30 06:02:40;;;;;;;12.85;6.90;;;21.60;91.70;;;;;;4979190;28;20213;-73
2022/05/30 06:05:10;;;;;;;12.45;6.93;;;21.60;91.70;;;;;;4986240;28;20244;-73
2022/05/30 06:07:40;;;;;;;11.10;6.20;;;21.60;91.60;;;;;;4976768;28;20232;-75
2022/05/30 06:10:14;;;;;;;10.70;6.47;;;21.70;91.60;;;;;;4983095;28;20220;-77
2022/05/30 06:12:44;;;;;;;14.95;7.55;;;21.70;91.60;;;;;;4977089;28;20804;-76
2022/05/30 06:15:29;;;;;;;11.88;7.07;;;21.70;91.50;;;;;;4983586;28;20817;-73
2022/05/30 06:17:57;;;;;;;12.70;7.00;;;21.80;91.50;;;;;;4980274;28;20192;-75
2022/05/30 06:20:26;;;;;;;12.48;6.90;;;21.80;91.50;;;;;;4981590;28;20227;-72
2022/05/30 06:22:54;;;;;;;11.40;7.20;;;21.80;91.40;;;;;;4981772;28;20205;-75
2022/05/30 06:25:24;;;;;;;17.00;7.45;;;21.90;91.50;;;;;;4985090;28;20201;-75
2022/05/30 06:27:52;;;;;;;12.90;7.68;;;21.90;91.40;;;;;;4983750;28;20652;-75
2022/05/30 06:30:20;;;;;;;14.52;7.05;;;21.90;91.30;;;;;;4984424;28;20747;-75
2022/05/30 06:32:49;;;;;;;13.93;7.10;;;21.90;91.20;;;;;;4984246;28;20201;-75
2022/05/30 06:35:17;;;;;;;10.52;6.40;;;22.00;91.10;;;;;;4989727;28;20671;-75
2022/05/30 06:37:45;;;;;;;13.40;7.32;;;22.00;91.00;;;;;;4987893;28;20223;-75
2022/05/30 06:40:15;;;;;;;14.82;8.48;;;22.00;90.90;;;;;;4984464;28;20282;-74
2022/05/30 06:42:44;;;;;;;14.82;8.90;;;22.00;90.90;;;;;;4984648;28;20212;-72
2022/05/30 06:45:13;;;;;;;15.82;9.38;;;22.00;90.80;;;;;;4984938;28;20199;-73
2022/05/30 06:47:41;;;;;;;14.50;8.10;;;22.00;90.70;;;;;;4974436;28;20233;-73
2022/05/30 06:50:10;;;;;;;13.50;7.38;;;22.00;90.70;;;;;;4971254;28;20201;-73
2022/05/30 06:52:39;;;;;;;11.27;7.07;;;22.00;90.70;;;;;;4976586;28;20197;-73
2022/05/30 06:55:09;;;;;;;14.52;8.07;;;22.10;90.70;;;;;;4980355;28;20204;-74
2022/05/30 07:00:24;;;;;;;10.63;6.88;;;22.20;90.70;;;;;;4972574;28;20212;-74
2022/05/30 07:02:52;;;;;;;11.80;6.72;;;22.20;90.70;;;;;;4976331;28;20198;-74
2022/05/30 07:05:21;;;;;;;11.23;6.32;;;22.30;90.70;;;;;;4976436;28;20201;-75
2022/05/30 07:07:55;;;;;;;12.27;8.45;;;22.30;90.60;;;;;;4981194;28;20197;-74
2022/05/30 07:10:25;;;;;;;11.93;7.03;;;22.30;90.50;;;;;;4980758;28;20267;-75
2022/05/30 07:12:53;;;;;;;12.88;6.90;;;22.40;90.50;;;;;;4983210;28;20193;-74
2022/05/30 07:15:23;;;;;;;11.73;7.05;;;22.40;90.40;;;;;;4981695;28;20212;-75
2022/05/30 07:17:53;;;;;;;9.52;6.78;;;22.50;90.20;;;;;;4980130;28;20203;-75
2022/05/30 07:20:21;;;;;;;11.40;6.10;;;22.60;90.20;;;;;;4981667;28;20228;-75
2022/05/30 07:22:50;;;;;;;12.73;6.63;;;22.60;90.10;;;;;;4980038;28;20259;-73
2022/05/30 07:25:19;;;;;;;10.35;5.97;;;22.70;90.00;;;;;;4981746;28;20205;-74
2022/05/30 07:27:47;;;;;;;11.57;5.85;;;22.70;89.90;;;;;;4981923;28;20212;-74
2022/05/30 07:30:16;;;;;;;10.63;6.60;;;22.70;89.70;;;;;;4984080;28;20200;-74
2022/05/30 07:32:52;;;;;;;10.82;5.65;;;22.80;89.40;;;;;;4980474;28;20553;-74
2022/05/30 07:35:20;;;;;;;10.07;6.22;;;22.80;89.20;;;;;;4972467;28;20651;-75
2022/05/30 07:37:49;;;;;;;9.80;5.78;;;22.80;88.90;;;;;;4981458;28;20200;-74
2022/05/30 07:40:19;;;;;;;12.30;5.80;;;22.80;88.70;;;;;;4980177;28;20213;-74
2022/05/30 07:42:48;;;;;;;10.93;6.25;;;22.90;88.70;;;;;;4979297;28;20762;-74
2022/05/30 07:45:16;;;;;;;11.55;5.97;;;22.90;88.40;;;;;;4980838;28;21033;-74
2022/05/30 07:47:47;;;;;;;11.77;5.78;;;22.90;88.30;;;;;;4988141;28;20236;-75
2022/05/30 07:50:17;;;;;;;9.15;5.75;;;23.00;88.00;;;;;;4981133;28;20193;-75
2022/05/30 07:52:46;;;;;;;8.15;5.50;;;23.10;88.00;;;;;;4987866;28;21028;-75
2022/05/30 07:55:14;;;;;;;7.20;5.38;;;23.10;88.00;;;;;;4982055;28;20208;-74
2022/05/30 07:57:52;;;;;;;8.98;5.32;;;23.10;87.60;;;;;;4986359;28;20205;-74
2022/05/30 08:00:29;;;;;;;13.60;5.95;;;23.20;87.50;;;;;;4982928;28;20208;-74
2022/05/30 08:02:57;;;;;;;8.00;5.00;;;23.20;87.00;;;;;;4988116;28;20236;-75
2022/05/30 08:05:27;;;;;;;7.32;5.30;;;23.30;86.70;;;;;;4981852;28;20188;-73
2022/05/30 08:07:55;;;;;;;9.10;5.05;;;23.30;85.90;;;;;;4984082;28;20201;-75
2022/05/30 08:10:26;;;;;;;9.23;5.40;;;23.30;85.80;;;;;;4981908;28;20319;-74
2022/05/30 08:12:55;;;;;;;8.63;4.47;;;23.30;85.60;;;;;;4984110;28;20203;-74
2022/05/30 08:15:23;;;;;;;8.02;5.07;;;23.30;85.60;;;;;;4976228;28;20289;-75
2022/05/30 08:17:55;;;;;;;12.50;5.45;;;23.30;85.50;;;;;;4981755;28;21207;-74
2022/05/30 08:20:25;;;;;;;8.27;4.43;;;23.40;85.60;;;;;;4987052;28;20212;-76
2022/05/30 08:22:56;;;;;;;11.38;5.40;;;23.40;85.50;;;;;;4970299;28;20218;-74
2022/05/30 08:25:24;;;;;;;11.52;5.00;;;23.40;85.20;;;;;;4987269;28;20247;-74
2022/05/30 08:27:53;;;;;;;9.68;4.55;;;23.50;85.20;;;;;;4983121;28;20189;-75
2022/05/30 08:30:21;;;;;;;7.90;4.97;;;23.50;84.90;;;;;;4989708;28;20441;-73
2022/05/30 08:32:50;;;;;;;7.43;5.60;;;23.50;84.80;;;;;;4987290;28;20212;-75
2022/05/30 08:35:20;;;;;;;7.90;4.65;;;23.50;84.40;;;;;;4985991;28;20204;-74
2022/05/30 08:37:49;;;;;;;9.73;5.97;;;23.50;84.40;;;;;;4996525;28;20694;-75
2022/05/30 08:43:14;;;;;;;7.07;5.35;;;23.60;84.50;;;;;;4985541;28;20200;-74
2022/05/30 08:45:49;;;;;;;9.32;5.88;;;23.60;84.60;;;;;;4984314;28;20190;-76
2022/05/30 08:48:29;;;;;;;10.10;6.03;;;23.70;84.30;;;;;;4979581;28;20263;-75
2022/05/30 08:51:09;;;;;;;10.45;5.75;;;23.70;84.00;;;;;;4986282;28;20209;-74
2022/05/30 08:53:54;;;;;;;9.43;5.72;;;23.70;84.20;;;;;;4992642;28;20220;-75
2022/05/30 08:56:29;;;;;;;7.75;5.93;;;23.80;84.30;;;;;;4996636;28;20196;-74
2022/05/30 08:59:10;;;;;;;9.10;5.63;;;23.80;84.30;;;;;;4978172;28;20192;-74
2022/05/30 09:01:41;;;;;;;15.68;6.03;;;23.90;83.90;;;;;;4980774;28;20220;-75
2022/05/30 09:04:24;;;;;;;10.32;5.47;;;23.90;83.40;;;;;;4983538;28;20201;-74
2022/05/30 09:06:57;;;;;;;9.88;5.13;;;24.00;83.40;;;;;;4981781;28;20205;-74
2022/05/30 09:09:30;;;;;;;10.10;5.82;;;24.00;83.40;;;;;;4981990;28;20203;-74
2022/05/30 09:12:06;;;;;;;7.90;5.40;;;24.10;84.10;;;;;;4984013;28;20212;-74
2022/05/30 09:14:41;;;;;;;9.45;5.93;;;24.10;83.20;;;;;;4984385;28;20197;-74
2022/05/30 09:17:17;;;;;;;8.98;5.43;;;24.10;82.80;;;;;;4980084;28;20200;-73
2022/05/30 09:19:46;;;;;;;10.90;5.75;;;24.10;82.80;;;;;;4979822;28;20215;-73
2022/05/30 09:22:16;;;;;;;8.70;5.30;;;24.10;82.10;;;;;;4982978;28;21172;-73
2022/05/30 09:25:55;;;;;;;10.30;4.88;;;24.10;81.90;;;;;;4980601;28;20536;-75
2022/05/30 09:27:37;;;;;;;11.77;6.05;;;24.10;82.10;;;;;;4981079;28;20200;-74
2022/05/30 09:30:09;;;;;;;8.93;5.40;;;24.20;82.00;;;;;;4981531;28;20208;-74
2022/05/30 09:32:50;;;;;;;13.73;5.88;;;24.30;81.80;;;;;;4982279;28;20567;-73
2022/05/30 09:35:22;;;;;;;7.65;5.47;;;24.30;81.30;;;;;;4986059;28;20208;-74
2022/05/30 09:38:06;;;;;;;6.93;4.82;;;24.30;80.90;;;;;;4981917;28;20193;-74
2022/05/30 09:40:40;;;;;;;10.02;5.65;;;24.40;80.70;;;;;;4984318;28;20208;-74
2022/05/30 09:43:13;;;;;;;9.68;6.15;;;24.40;80.10;;;;;;4986318;28;20231;-75
2022/05/30 09:45:42;;;;;;;10.60;4.43;;;24.50;80.20;;;;;;4988406;28;20189;-75
2022/05/30 09:48:14;;;;;;;7.90;4.88;;;24.50;79.90;;;;;;4982920;28;20243;-74
2022/05/30 09:50:44;;;;;;;8.32;5.40;;;24.50;79.90;;;;;;4988474;28;20208;-75
2022/05/30 09:53:13;;;;;;;7.15;4.75;;;24.50;79.90;;;;;;4984298;28;20194;-74
2022/05/30 09:55:49;;;;;;;7.00;5.35;;;24.60;79.90;;;;;;4984272;28;20204;-75
2022/05/30 09:58:44;;;;;;;7.50;4.88;;;24.60;79.70;;;;;;4983031;28;20215;-74
2022/05/30 10:01:22;;;;;;;13.68;4.90;;;24.70;79.70;;;;;;4981619;28;20232;-74
2022/05/30 10:03:56;;;;;;;6.57;4.93;;;24.70;79.20;;;;;;4979256;28;20856;-73
2022/05/30 10:06:26;;;;;;;7.50;4.93;;;24.80;79.10;;;;;;4984121;28;20197;-74
2022/05/30 10:09:10;;;;;;;6.70;4.93;;;24.90;79.10;;;;;;4982496;28;20872;-74
2022/05/30 10:11:38;;;;;;;5.13;3.85;;;25.00;78.80;;;;;;4976835;28;20201;-75
2022/05/30 10:14:21;;;;;;;5.53;4.25;;;25.10;78.10;;;;;;4983770;28;20201;-73
2022/05/30 10:16:51;;;;;;;7.80;4.78;;;25.10;77.70;;;;;;4983789;28;20205;-75
2022/05/30 10:19:25;;;;;;;8.10;4.78;;;25.20;78.10;;;;;;4984223;28;20887;-74
2022/05/30 10:28:17;;;;;;;7.35;4.53;;;25.30;77.40;;;;;;4982499;28;20557;-75
2022/05/30 10:31:02;;;;;;;5.32;4.30;;;25.40;76.90;;;;;;4978321;28;20866;-75
2022/05/30 10:33:51;;;;;;;8.40;4.78;;;25.50;76.80;;;;;;4983856;28;20196;-74
2022/05/30 10:36:27;;;;;;;9.10;5.35;;;25.60;76.60;;;;;;4979508;28;20193;-74
2022/05/30 10:39:12;;;;;;;7.35;5.40;;;25.70;75.80;;;;;;4981898;28;20766;-74
2022/05/30 10:41:47;;;;;;;6.93;5.10;;;25.80;75.60;;;;;;4978214;28;20200;-75
2022/05/30 10:44:22;;;;;;;6.75;4.95;;;25.90;75.80;;;;;;4987247;28;20674;-75
2022/05/30 10:47:02;;;;;;;8.93;4.60;;;25.90;74.60;;;;;;4967918;28;20233;-75
2022/05/30 10:49:36;;;;;;;7.20;4.20;;;25.90;74.10;;;;;;4992554;28;20235;-75
2022/05/30 10:52:12;;;;;;;7.43;4.97;;;26.00;74.40;;;;;;4987392;28;20185;-74
2022/05/30 10:54:46;;;;;;;8.18;4.95;;;26.00;74.60;;;;;;4973339;28;20202;-74
2022/05/30 10:57:23;;;;;;;6.70;4.97;;;26.10;75.00;;;;;;4984785;28;20201;-76
2022/05/30 10:59:55;;;;;;;7.05;4.32;;;26.20;74.70;;;;;;4972650;28;20214;-76
2022/05/30 11:02:32;;;;;;;9.40;4.88;;;26.20;74.40;;;;;;4968870;28;20222;-75
2022/05/30 11:05:07;;;;;;;6.82;4.68;;;26.20;73.80;;;;;;4975683;28;20197;-75
2022/05/30 11:07:48;;;;;;;9.18;4.53;;;26.20;73.70;;;;;;4977147;28;20192;-75
2022/05/30 11:10:32;;;;;;;6.75;4.38;;;26.20;74.40;;;;;;4985898;28;20219;-74
2022/05/30 11:13:08;;;;;;;4.82;3.25;;;26.30;74.60;;;;;;4983368;28;20199;-76
2022/05/30 11:15:41;;;;;;;5.30;3.45;;;26.30;74.30;;;;;;4986131;28;20193;-74
2022/05/30 11:18:16;;;;;;;5.85;3.65;;;26.40;74.00;;;;;;4983605;28;20239;-76
2022/05/30 11:20:54;;;;;;;5.55;3.88;;;26.40;73.20;;;;;;4985162;28;20199;-76
2022/05/30 11:23:23;;;;;;;5.57;3.67;;;26.40;72.40;;;;;;4982437;28;20212;-75
2022/05/30 11:26:08;;;;;;;4.60;3.80;;;26.30;72.30;;;;;;4984116;28;20211;-74
2022/05/30 11:28:49;;;;;;;6.75;3.83;;;26.30;72.50;;;;;;4981396;28;20304;-75
2022/05/30 11:31:22;;;;;;;6.63;3.97;;;26.20;72.60;;;;;;4984572;28;20201;-75
2022/05/30 11:34:06;;;;;;;5.90;3.75;;;26.20;72.70;;;;;;4988257;28;20200;-76
2022/05/30 11:37:07;;;;;;;7.63;3.25;;;26.20;72.80;;;;;;4986181;28;20193;-75
2022/05/30 11:39:56;;;;;;;5.65;3.53;;;26.10;73.00;;;;;;4983260;28;20797;-75
2022/05/30 11:42:35;;;;;;;8.43;4.07;;;26.20;73.30;;;;;;4987772;28;20836;-75
2022/05/30 11:45:10;;;;;;;4.25;2.95;;;26.20;73.90;;;;;;4984417;28;20189;-76
2022/05/30 11:47:49;;;;;;;7.68;3.38;;;26.30;74.40;;;;;;4985213;28;20247;-76
2022/05/30 11:50:29;;;;;;;7.22;3.20;;;26.50;74.10;;;;;;4983796;28;20208;-75
2022/05/30 11:53:20;;;;;;;5.38;3.50;;;26.50;74.20;;;;;;4982297;28;20185;-75
2022/05/30 11:55:57;;;;;;;5.30;3.15;;;26.70;73.80;;;;;;4966915;28;20201;-75
2022/05/30 11:58:46;;;;;;;4.50;2.90;;;26.90;73.10;;;;;;4986470;28;20199;-75
2022/05/30 12:01:18;;;;;;;8.45;3.45;;;26.90;72.40;;;;;;4984509;28;20213;-75
2022/05/30 12:04:11;;;;;;;6.93;3.28;;;26.90;71.60;;;;;;4979497;28;20228;-75
2022/05/30 12:07:11;;;;;;;4.75;3.40;;;26.80;71.60;;;;;;4983815;28;20209;-75
2022/05/30 12:10:01;;;;;;;4.35;3.05;;;26.80;71.90;;;;;;4979322;28;20205;-75
2022/05/30 12:12:38;;;;;;;5.47;3.72;;;26.70;72.10;;;;;;4985576;28;20193;-75
2022/05/30 12:15:41;;;;;;;5.32;3.40;;;26.70;72.30;;;;;;4982908;28;20276;-75
2022/05/30 12:24:31;;;;;;;3.97;2.85;;;26.60;72.60;;;;;;4984504;28;20632;-75
2022/05/30 12:27:33;;;;;;;5.10;2.78;;;26.80;72.90;;;;;;4983163;28;20856;-76
2022/05/30 12:30:04;;;;;;;5.50;3.53;;;26.90;73.20;;;;;;4982333;28;20201;-75
2022/05/30 12:32:46;;;;;;;7.07;3.30;;;27.10;72.30;;;;;;4983635;28;20814;-75
2022/05/30 12:35:26;;;;;;;4.68;3.08;;;27.10;71.60;;;;;;4985573;28;20212;-75
2022/05/30 12:38:13;;;;;;;9.48;2.95;;;27.10;71.50;;;;;;4986108;28;20328;-75
2022/05/30 12:41:03;;;;;;;6.38;3.15;;;27.10;72.20;;;;;;4985455;28;20201;-75
2022/05/30 12:43:43;;;;;;;6.32;3.35;;;27.20;71.90;;;;;;4976488;28;20312;-75
2022/05/30 12:46:16;;;;;;;8.00;3.25;;;27.10;71.30;;;;;;4988533;28;20204;-74
2022/05/30 12:48:59;;;;;;;7.75;2.60;;;27.30;72.10;;;;;;4987596;28;20216;-76
2022/05/30 12:51:32;;;;;;;4.63;2.67;;;27.40;71.90;;;;;;4975756;28;20189;-77
2022/05/30 12:54:22;;;;;;;3.90;2.53;;;27.60;71.60;;;;;;4976262;28;20865;-76
2022/05/30 12:57:08;;;;;;;3.75;2.50;;;27.70;69.70;;;;;;4981731;28;20204;-76
2022/05/30 13:00:06;;;;;;;6.00;2.47;;;27.80;69.60;;;;;;4975758;28;20205;-77
2022/05/30 13:03:12;;;;;;;3.85;2.60;;;27.70;68.00;;;;;;4980328;28;20225;-75
2022/05/30 13:06:10;;;;;;;5.63;3.00;;;27.80;69.70;;;;;;4982359;28;20205;-75
2022/05/30 13:09:06;;;;;;;4.05;2.90;;;27.80;69.40;;;;;;4980230;28;20194;-76
2022/05/30 13:12:02;;;;;;;4.45;3.03;;;27.90;69.30;;;;;;4978684;28;20202;-76
2022/05/30 13:14:59;;;;;;;6.18;2.50;;;28.10;68.10;;;;;;4979754;28;20540;-76
2022/05/30 13:17:46;;;;;;;5.22;2.35;;;28.30;67.70;;;;;;4977949;28;20205;-74
2022/05/30 13:20:17;;;;;;;5.18;2.50;;;28.60;67.50;;;;;;4979773;28;20208;-75
2022/05/30 13:22:48;;;;;;;4.85;2.25;;;29.00;68.00;;;;;;4982025;28;20683;-75
2022/05/30 13:25:21;;;;;;;3.33;1.90;;;29.50;66.00;;;;;;4980471;28;20209;-75
2022/05/30 13:27:50;;;;;;;2.58;2.10;;;29.90;64.70;;;;;;4989080;28;20189;-75
2022/05/30 13:30:25;;;;;;;7.68;2.30;;;30.00;63.50;;;;;;4978634;28;20208;-75
2022/05/30 13:32:56;;;;;;;4.70;2.42;;;30.10;61.80;;;;;;4984663;28;20196;-76
2022/05/30 13:35:31;;;;;;;5.72;2.10;;;30.10;62.20;;;;;;4990117;28;20185;-75